Time;durP1;ratioP1;P1;durP2;ratioP2;P2;SDS_P1;SDS_P2;PMS_P1;PMS_P2;Temp;Humidity;BMP_temperature;BMP_pressure;BME280_temperature;BME280_humidity;BME280_pressure;Samples;Min_cycle;Max_cycle;Signal;HPM_P1;HPM_P2
2022/10/27 00:01:18;;;;;;;3.43;1.50;;;16.60;92.20;;;;;;5064194;28;20479;-48
2022/10/27 00:03:50;;;;;;;1.80;1.30;;;16.50;92.00;;;;;;5049817;28;20921;-48
2022/10/27 00:06:19;;;;;;;2.10;1.73;;;16.60;92.00;;;;;;5050201;28;20475;-48
2022/10/27 00:08:49;;;;;;;5.17;1.40;;;16.60;92.00;;;;;;5050285;28;20419;-49
2022/10/27 00:11:19;;;;;;;1.17;1.00;;;16.50;92.00;;;;;;5048418;28;21031;-49
2022/10/27 00:13:48;;;;;;;1.57;1.23;;;16.50;92.00;;;;;;5049839;28;20431;-48
2022/10/27 00:16:18;;;;;;;1.33;1.23;;;16.50;92.00;;;;;;5057307;28;20474;-49
2022/10/27 00:18:47;;;;;;;1.47;1.10;;;16.50;92.00;;;;;;5063062;28;20443;-48
2022/10/27 00:21:18;;;;;;;2.50;1.60;;;16.50;92.00;;;;;;5035098;28;20479;-49
2022/10/27 00:23:49;;;;;;;4.10;1.70;;;16.50;91.90;;;;;;5046115;28;20957;-48
2022/10/27 00:26:20;;;;;;;1.70;0.93;;;16.50;92.00;;;;;;5066866;28;20471;-48
2022/10/27 00:28:49;;;;;;;6.47;1.83;;;16.50;91.90;;;;;;5049820;28;20437;-48
2022/10/27 00:31:19;;;;;;;3.37;1.43;;;16.50;92.00;;;;;;5047638;28;20511;-49
2022/10/27 00:33:50;;;;;;;2.40;1.80;;;16.50;92.00;;;;;;5046213;28;20431;-49
2022/10/27 00:36:21;;;;;;;8.13;1.97;;;16.50;91.90;;;;;;5063044;28;20504;-48
2022/10/27 00:38:52;;;;;;;2.47;1.00;;;16.50;91.90;;;;;;5069778;28;20426;-48
2022/10/27 00:41:28;;;;;;;1.67;1.23;;;16.50;92.00;;;;;;5064705;28;20486;-48
2022/10/27 00:43:59;;;;;;;3.10;1.50;;;16.50;92.00;;;;;;5049722;28;20761;-49
2022/10/27 00:46:35;;;;;;;2.73;1.37;;;16.50;92.00;;;;;;5046814;28;20475;-49
2022/10/27 00:49:06;;;;;;;2.60;2.40;;;16.50;92.00;;;;;;5069087;28;20429;-49
2022/10/27 00:51:35;;;;;;;1.53;1.10;;;16.50;92.00;;;;;;5072159;28;20462;-49
2022/10/27 00:54:04;;;;;;;4.17;1.73;;;16.50;92.00;;;;;;5067177;28;20435;-49
2022/10/27 00:56:34;;;;;;;1.33;1.23;;;16.50;92.00;;;;;;5048674;28;21021;-49
2022/10/27 00:59:03;;;;;;;2.43;1.00;;;16.50;91.90;;;;;;5059659;28;20480;-48
2022/10/27 01:01:32;;;;;;;2.20;1.10;;;16.50;91.90;;;;;;5068158;28;20453;-49
2022/10/27 01:04:01;;;;;;;1.43;1.20;;;16.50;91.90;;;;;;5066109;28;20442;-49
2022/10/27 01:06:30;;;;;;;1.63;1.37;;;16.50;91.80;;;;;;5072429;28;20446;-49
2022/10/27 01:08:59;;;;;;;1.83;0.80;;;16.50;91.90;;;;;;5072955;28;20920;-49
2022/10/27 01:11:28;;;;;;;2.23;1.33;;;16.50;91.80;;;;;;5067552;28;20560;-49
2022/10/27 01:13:58;;;;;;;1.43;1.03;;;16.50;91.80;;;;;;5072323;28;20437;-49
2022/10/27 01:16:36;;;;;;;1.53;1.13;;;16.50;91.90;;;;;;5059053;28;20469;-48
2022/10/27 01:19:29;;;;;;;1.50;0.90;;;16.50;91.80;;;;;;5070683;28;20437;-49
2022/10/27 01:22:08;;;;;;;1.87;1.20;;;16.50;91.80;;;;;;5053426;28;20469;-48
2022/10/27 01:24:54;;;;;;;3.53;1.57;;;16.50;91.80;;;;;;5053150;28;20466;-47
2022/10/27 01:27:51;;;;;;;1.67;1.20;;;16.50;91.80;;;;;;5048278;28;20470;-48
2022/10/27 01:30:22;;;;;;;1.53;1.10;;;16.50;91.70;;;;;;5032220;28;20468;-48
2022/10/27 01:33:01;;;;;;;5.10;1.10;;;16.50;91.70;;;;;;5062616;28;20475;-49
2022/10/27 01:35:35;;;;;;;2.60;1.40;;;16.50;91.70;;;;;;5050880;28;20454;-49
2022/10/27 01:38:11;;;;;;;1.53;1.00;;;16.50;91.70;;;;;;5052253;28;20449;-49
2022/10/27 01:40:45;;;;;;;2.80;1.10;;;16.50;91.70;;;;;;5050706;28;20481;-49
2022/10/27 01:43:18;;;;;;;2.47;1.30;;;16.50;91.70;;;;;;5052645;28;20936;-48
2022/10/27 01:45:48;;;;;;;1.60;1.10;;;16.50;91.70;;;;;;5051379;28;20470;-49
2022/10/27 01:48:19;;;;;;;3.10;1.10;;;16.50;91.60;;;;;;5050530;28;20473;-49
2022/10/27 01:50:48;;;;;;;1.83;1.00;;;16.50;91.60;;;;;;5058383;28;20515;-48
2022/10/27 01:53:39;;;;;;;2.67;1.10;;;16.50;91.60;;;;;;5072503;28;20422;-48
2022/10/27 01:56:25;;;;;;;2.00;0.90;;;16.50;91.60;;;;;;5052025;28;20529;-48
2022/10/27 01:59:11;;;;;;;1.47;1.13;;;16.50;91.50;;;;;;5032458;28;20951;-49
2022/10/27 02:01:52;;;;;;;2.17;1.10;;;16.50;91.50;;;;;;5033731;28;20866;-48
2022/10/27 02:04:30;;;;;;;2.53;1.20;;;16.50;91.50;;;;;;5075217;22;20485;-69
2022/10/27 02:07:05;;;;;;;0.73;0.70;;;16.50;91.60;;;;;;5068150;28;20530;-70
2022/10/27 02:09:42;;;;;;;1.67;1.37;;;16.50;91.50;;;;;;5067959;28;20469;-69
2022/10/27 02:12:18;;;;;;;2.40;1.47;;;16.50;91.60;;;;;;5051977;28;20431;-69
2022/10/27 02:14:50;;;;;;;1.53;1.00;;;16.50;91.50;;;;;;5028847;28;20499;-69
2022/10/27 02:17:20;;;;;;;2.30;0.90;;;16.50;91.50;;;;;;5026861;28;20441;-69
2022/10/27 02:19:52;;;;;;;1.73;1.13;;;16.50;91.40;;;;;;5032015;28;20448;-69
2022/10/27 02:22:22;;;;;;;1.50;1.00;;;16.50;91.40;;;;;;5031636;28;20552;-68
2022/10/27 02:24:51;;;;;;;2.97;1.40;;;16.50;91.40;;;;;;5029135;28;20448;-69
2022/10/27 02:27:27;;;;;;;1.43;1.10;;;16.50;91.40;;;;;;5028209;28;20464;-69
2022/10/27 02:29:59;;;;;;;2.20;1.53;;;16.50;91.40;;;;;;5042820;28;20471;-70
2022/10/27 02:32:29;;;;;;;3.43;1.60;;;16.40;91.40;;;;;;5033840;28;20444;-68
2022/10/27 02:35:00;;;;;;;1.80;1.03;;;16.40;91.40;;;;;;5031046;28;20424;-69
2022/10/27 02:37:32;;;;;;;1.80;1.00;;;16.50;91.40;;;;;;5051303;28;20458;-68
2022/10/27 02:40:00;;;;;;;4.93;1.23;;;16.40;91.30;;;;;;5051141;28;20427;-69
2022/10/27 02:42:29;;;;;;;1.53;1.10;;;16.50;91.40;;;;;;5043766;28;20860;-68
2022/10/27 02:44:57;;;;;;;1.60;1.13;;;16.40;91.30;;;;;;5030387;28;20502;-68
2022/10/27 02:47:26;;;;;;;1.50;1.40;;;16.40;91.30;;;;;;5036989;28;21040;-69
2022/10/27 02:49:54;;;;;;;2.40;1.10;;;16.40;91.30;;;;;;5046463;28;20534;-69
2022/10/27 02:52:24;;;;;;;3.03;1.43;;;16.40;91.30;;;;;;5031150;28;20425;-69
2022/10/27 02:54:52;;;;;;;0.97;0.90;;;16.40;91.30;;;;;;5029965;28;20460;-68
2022/10/27 02:57:21;;;;;;;3.07;1.70;;;16.40;91.30;;;;;;5043484;28;20452;-69
2022/10/27 02:59:49;;;;;;;2.00;1.30;;;16.40;91.20;;;;;;5042375;28;20488;-69
2022/10/27 03:02:22;;;;;;;2.57;1.70;;;16.40;91.20;;;;;;5028651;28;20450;-69
2022/10/27 03:04:51;;;;;;;1.97;1.17;;;16.40;91.20;;;;;;5027679;28;20997;-68
2022/10/27 03:07:19;;;;;;;2.07;1.23;;;16.40;91.20;;;;;;5029431;28;20971;-69
2022/10/27 03:09:49;;;;;;;2.17;1.10;;;16.40;91.20;;;;;;5028320;28;20546;-69
2022/10/27 03:12:17;;;;;;;1.70;0.97;;;16.40;91.20;;;;;;5019685;28;20798;-68
2022/10/27 03:14:46;;;;;;;1.37;0.80;;;16.40;91.20;;;;;;5030982;28;20439;-69
2022/10/27 03:17:14;;;;;;;2.27;0.80;;;16.40;91.10;;;;;;5035736;28;20448;-68
2022/10/27 03:19:43;;;;;;;3.20;1.20;;;16.40;91.60;;;;;;5027712;28;20467;-69
2022/10/27 03:22:11;;;;;;;1.97;0.97;;;16.40;91.10;;;;;;5027457;28;20436;-69
2022/10/27 03:24:39;;;;;;;2.13;1.10;;;16.40;91.10;;;;;;5028036;28;20430;-69
2022/10/27 03:27:09;;;;;;;1.43;0.80;;;16.40;91.10;;;;;;5041460;28;20965;-69
2022/10/27 03:29:37;;;;;;;1.10;0.90;;;16.40;91.00;;;;;;5028117;28;20554;-69
2022/10/27 03:32:06;;;;;;;1.10;1.00;;;16.40;91.00;;;;;;5034474;28;20449;-68
2022/10/27 03:34:34;;;;;;;1.70;1.00;;;16.40;90.90;;;;;;5007806;28;20875;-68
2022/10/27 03:37:02;;;;;;;2.00;0.93;;;16.40;90.90;;;;;;5024919;28;20428;-69
2022/10/27 03:39:31;;;;;;;2.07;0.80;;;16.40;90.90;;;;;;5028174;28;20452;-68
2022/10/27 03:41:59;;;;;;;1.33;1.23;;;16.40;90.90;;;;;;5026847;28;21006;-69
2022/10/27 03:44:29;;;;;;;1.50;1.03;;;16.40;90.80;;;;;;5031382;28;20435;-69
2022/10/27 03:46:57;;;;;;;2.00;1.30;;;16.40;90.80;;;;;;5037391;28;20445;-68
2022/10/27 03:49:26;;;;;;;1.00;0.90;;;16.40;90.80;;;;;;5027267;28;21000;-68
2022/10/27 03:51:55;;;;;;;1.67;1.03;;;16.30;90.80;;;;;;5011496;28;20436;-69
2022/10/27 03:54:24;;;;;;;1.40;0.90;;;16.40;90.80;;;;;;5029417;28;20519;-67
2022/10/27 03:56:52;;;;;;;2.03;0.90;;;16.40;90.80;;;;;;5024754;28;20456;-69
2022/10/27 03:59:20;;;;;;;1.13;0.90;;;16.40;90.70;;;;;;5026042;28;20476;-69
2022/10/27 04:01:50;;;;;;;1.63;1.27;;;16.40;90.70;;;;;;5026744;28;20471;-69
2022/10/27 04:04:19;;;;;;;3.50;0.83;;;16.40;90.70;;;;;;5010438;28;20505;-68
2022/10/27 04:06:47;;;;;;;1.43;1.20;;;16.30;90.70;;;;;;5047398;28;20510;-69
2022/10/27 04:09:15;;;;;;;1.27;0.93;;;16.40;90.60;;;;;;5047459;28;20467;-68
2022/10/27 04:11:44;;;;;;;1.03;0.73;;;16.30;90.50;;;;;;5023341;28;20564;-68
2022/10/27 04:14:13;;;;;;;2.50;0.90;;;16.30;90.50;;;;;;5032714;28;20436;-67
2022/10/27 04:16:41;;;;;;;1.30;1.20;;;16.30;90.50;;;;;;5019626;28;20459;-69
2022/10/27 04:19:12;;;;;;;1.10;0.70;;;16.30;90.50;;;;;;5008090;28;20467;-68
2022/10/27 04:21:40;;;;;;;1.00;0.80;;;16.30;90.50;;;;;;5030353;28;20451;-68
2022/10/27 04:24:09;;;;;;;1.17;0.80;;;16.30;90.40;;;;;;5027446;28;20742;-68
2022/10/27 04:26:37;;;;;;;1.33;0.90;;;16.30;90.50;;;;;;5023015;28;21052;-68
2022/10/27 04:29:06;;;;;;;0.70;0.63;;;16.30;90.40;;;;;;5046734;28;20459;-67
2022/10/27 04:31:34;;;;;;;1.00;0.77;;;16.30;90.50;;;;;;5025628;28;20881;-68
2022/10/27 04:34:02;;;;;;;1.17;0.80;;;16.30;90.40;;;;;;5024445;28;20800;-67
2022/10/27 04:36:32;;;;;;;1.13;0.70;;;16.30;90.80;;;;;;5041276;28;20698;-68
2022/10/27 04:39:01;;;;;;;1.90;0.97;;;16.30;90.40;;;;;;5047450;28;20869;-68
2022/10/27 04:41:29;;;;;;;1.63;0.70;;;16.30;90.40;;;;;;5042859;28;20909;-68
2022/10/27 04:43:57;;;;;;;1.30;0.93;;;16.30;90.40;;;;;;5027588;28;20478;-68
2022/10/27 04:46:26;;;;;;;1.93;0.80;;;16.30;90.40;;;;;;5037711;28;20479;-68
2022/10/27 04:48:54;;;;;;;1.20;0.70;;;16.30;90.40;;;;;;5027081;28;20913;-69
2022/10/27 04:51:22;;;;;;;3.50;1.03;;;16.30;90.40;;;;;;5056579;28;20467;-68
2022/10/27 04:53:52;;;;;;;1.73;0.90;;;16.30;90.30;;;;;;5046068;28;20463;-68
2022/10/27 04:56:21;;;;;;;0.87;0.80;;;16.30;90.40;;;;;;5030522;28;20479;-68
2022/10/27 04:58:49;;;;;;;1.60;1.20;;;16.30;90.30;;;;;;5027032;28;20467;-69
2022/10/27 05:01:18;;;;;;;1.20;0.80;;;16.30;90.30;;;;;;5025452;28;20468;-68
2022/10/27 05:03:47;;;;;;;1.17;0.77;;;16.20;90.20;;;;;;5028800;28;20506;-69
2022/10/27 05:06:16;;;;;;;0.87;0.87;;;16.20;90.30;;;;;;5045982;28;20475;-68
2022/10/27 05:08:44;;;;;;;0.97;0.73;;;16.20;90.30;;;;;;5045912;28;20459;-68
2022/10/27 05:11:14;;;;;;;1.30;0.80;;;16.20;90.30;;;;;;5029363;28;21002;-69
2022/10/27 05:13:43;;;;;;;1.00;0.80;;;16.20;90.30;;;;;;5029673;28;21000;-69
2022/10/27 05:16:12;;;;;;;0.83;0.80;;;16.20;90.20;;;;;;5045880;28;20983;-68
2022/10/27 05:18:40;;;;;;;1.40;0.90;;;16.20;90.20;;;;;;5009792;28;20473;-69
2022/10/27 05:21:09;;;;;;;0.70;0.70;;;16.20;90.70;;;;;;5026142;28;20475;-69
2022/10/27 05:23:37;;;;;;;2.33;1.30;;;16.20;90.20;;;;;;5036202;28;20447;-68
2022/10/27 05:26:06;;;;;;;0.80;0.80;;;16.20;90.20;;;;;;5040567;28;21089;-68
2022/10/27 05:28:36;;;;;;;1.33;0.97;;;16.20;90.20;;;;;;5043759;28;20456;-69
2022/10/27 05:31:05;;;;;;;0.90;0.63;;;16.20;90.30;;;;;;5025305;28;20494;-68
2022/10/27 05:33:33;;;;;;;1.23;0.83;;;16.20;90.20;;;;;;5025368;28;20448;-69
2022/10/27 05:36:02;;;;;;;0.80;0.60;;;16.20;90.20;;;;;;5025874;28;20559;-68
2022/10/27 05:38:30;;;;;;;1.57;0.80;;;16.20;90.20;;;;;;5037604;28;21131;-69
2022/10/27 05:40:58;;;;;;;1.07;0.70;;;16.20;90.20;;;;;;5034352;28;20833;-68
2022/10/27 05:43:27;;;;;;;1.63;0.90;;;16.20;90.20;;;;;;5030210;28;20427;-68
2022/10/27 05:46:06;;;;;;;1.53;0.70;;;16.20;90.20;;;;;;5033465;28;20475;-68
2022/10/27 05:48:35;;;;;;;1.00;0.80;;;16.20;90.20;;;;;;5025480;28;20473;-69
2022/10/27 05:51:03;;;;;;;2.47;0.77;;;16.10;90.20;;;;;;5030167;28;20478;-68
2022/10/27 05:53:32;;;;;;;2.53;1.13;;;16.20;90.10;;;;;;5036643;28;20595;-68
2022/10/27 05:56:00;;;;;;;1.37;0.80;;;16.10;90.20;;;;;;5037125;28;20586;-68
2022/10/27 05:58:29;;;;;;;0.83;0.77;;;16.10;90.20;;;;;;5026807;28;20458;-68
2022/10/27 06:00:59;;;;;;;0.83;0.70;;;16.10;90.10;;;;;;5031747;28;20533;-69
2022/10/27 06:03:29;;;;;;;1.40;0.90;;;16.10;90.10;;;;;;5029831;28;20541;-69
2022/10/27 06:05:58;;;;;;;1.30;0.70;;;16.10;90.10;;;;;;5038176;28;20463;-68
2022/10/27 06:08:27;;;;;;;1.50;1.00;;;16.10;90.20;;;;;;5049552;28;21059;-68
2022/10/27 06:10:56;;;;;;;1.87;0.90;;;16.10;90.10;;;;;;5027582;28;20534;-69
2022/10/27 06:13:25;;;;;;;3.03;1.37;;;16.10;90.20;;;;;;5026037;28;20448;-68
2022/10/27 06:15:53;;;;;;;1.27;1.00;;;16.10;90.10;;;;;;5051240;28;20888;-69
2022/10/27 06:18:21;;;;;;;1.23;0.70;;;16.10;90.10;;;;;;5043866;28;20474;-67
2022/10/27 06:20:51;;;;;;;2.30;0.90;;;16.10;90.20;;;;;;5058799;28;20562;-67
2022/10/27 06:23:20;;;;;;;1.00;0.80;;;16.10;90.20;;;;;;5037462;28;20515;-69
2022/10/27 06:25:48;;;;;;;1.20;0.90;;;16.10;90.60;;;;;;5044276;28;20507;-69
2022/10/27 06:28:17;;;;;;;1.47;1.07;;;16.10;90.10;;;;;;5012443;28;20521;-66
2022/10/27 06:30:45;;;;;;;1.00;0.90;;;16.10;90.10;;;;;;5046498;28;20839;-68
2022/10/27 06:33:14;;;;;;;1.20;1.10;;;16.10;90.10;;;;;;5032422;28;20444;-68
2022/10/27 06:35:42;;;;;;;1.50;1.20;;;16.10;90.10;;;;;;5036010;28;20914;-67
2022/10/27 06:38:15;;;;;;;0.97;0.87;;;16.10;90.20;;;;;;5029028;28;20455;-69
2022/10/27 06:40:44;;;;;;;1.90;0.80;;;16.10;90.10;;;;;;5034119;28;20632;-67
2022/10/27 06:43:13;;;;;;;2.73;1.23;;;16.10;90.10;;;;;;5025443;28;20495;-68
2022/10/27 06:45:46;;;;;;;1.37;1.27;;;16.10;90.10;;;;;;5021836;28;20986;-68
2022/10/27 06:48:15;;;;;;;0.80;0.70;;;16.10;90.10;;;;;;5027807;28;20527;-68
2022/10/27 06:50:43;;;;;;;1.23;0.90;;;16.10;90.00;;;;;;5017297;28;21073;-67
2022/10/27 06:53:14;;;;;;;2.50;0.90;;;16.00;90.00;;;;;;5028898;28;20463;-68
2022/10/27 06:55:43;;;;;;;1.20;0.70;;;16.00;90.10;;;;;;5025035;28;21007;-67
2022/10/27 06:58:11;;;;;;;1.43;0.80;;;16.00;90.20;;;;;;5034314;28;20469;-67
2022/10/27 07:00:40;;;;;;;1.30;1.03;;;16.10;90.10;;;;;;5049059;28;20463;-69
2022/10/27 07:03:09;;;;;;;2.07;1.23;;;16.00;90.10;;;;;;5042357;28;20474;-68
2022/10/27 07:05:39;;;;;;;1.50;1.30;;;16.00;90.10;;;;;;5044481;28;20476;-67
2022/10/27 07:08:08;;;;;;;1.30;0.60;;;16.00;90.00;;;;;;5039372;28;20447;-69
2022/10/27 07:10:37;;;;;;;1.50;0.93;;;16.00;90.10;;;;;;5038432;28;20478;-68
2022/10/27 07:13:06;;;;;;;1.75;1.20;;;16.00;90.10;;;;;;5027305;28;20528;-69
2022/10/27 07:15:37;;;;;;;3.67;1.17;;;16.00;90.10;;;;;;5028668;28;20224;-68
2022/10/27 07:18:07;;;;;;;1.57;1.07;;;16.00;90.10;;;;;;5025907;28;20464;-69
2022/10/27 07:20:37;;;;;;;2.37;0.97;;;16.00;90.10;;;;;;5026994;28;20606;-68
2022/10/27 07:23:08;;;;;;;1.80;1.10;;;16.00;90.10;;;;;;5027722;28;20959;-71
2022/10/27 07:25:38;;;;;;;1.30;0.90;;;16.00;90.30;;;;;;5025207;28;20585;-73
2022/10/27 07:28:07;;;;;;;1.90;1.20;;;16.00;90.20;;;;;;5027933;28;20459;-71
2022/10/27 07:30:38;;;;;;;1.33;1.07;;;16.00;90.20;;;;;;5025681;28;20547;-71
2022/10/27 07:33:07;;;;;;;2.77;1.20;;;16.00;90.20;;;;;;5026859;28;20507;-71
2022/10/27 07:35:35;;;;;;;2.37;1.60;;;16.00;90.20;;;;;;5025400;28;20892;-73
2022/10/27 07:38:05;;;;;;;2.50;1.10;;;16.00;90.20;;;;;;5028130;28;20802;-72
2022/10/27 07:40:34;;;;;;;2.00;1.20;;;16.00;90.30;;;;;;5024395;28;20463;-72
2022/10/27 07:43:04;;;;;;;1.70;1.10;;;16.00;90.30;;;;;;5021152;28;20436;-73
2022/10/27 07:45:37;;;;;;;1.60;1.10;;;16.00;90.30;;;;;;5027926;28;20491;-72
2022/10/27 07:48:08;;;;;;;3.53;1.53;;;16.00;90.30;;;;;;5027585;28;20687;-73
2022/10/27 07:50:36;;;;;;;1.37;1.17;;;16.00;90.40;;;;;;5026494;28;20552;-74
2022/10/27 07:53:05;;;;;;;1.07;0.90;;;16.00;90.40;;;;;;5028251;28;20448;-74
2022/10/27 07:55:35;;;;;;;1.63;0.90;;;16.00;90.30;;;;;;5025537;28;20558;-73
2022/10/27 07:58:07;;;;;;;2.53;1.17;;;16.00;90.30;;;;;;5026747;28;20809;-73
2022/10/27 08:00:38;;;;;;;1.17;0.80;;;16.00;90.30;;;;;;5016972;28;20546;-72
2022/10/27 08:03:30;;;;;;;1.73;1.40;;;16.00;90.40;;;;;;5025621;28;21008;-67
2022/10/27 08:06:02;;;;;;;0.90;0.70;;;16.00;90.30;;;;;;5022676;28;20464;-70
2022/10/27 08:08:31;;;;;;;2.40;1.23;;;16.00;90.30;;;;;;5036329;28;20447;-71
2022/10/27 08:11:00;;;;;;;1.30;0.80;;;16.00;90.30;;;;;;5054405;28;20918;-70
2022/10/27 08:13:30;;;;;;;1.90;1.13;;;16.00;90.30;;;;;;5061099;28;20464;-70
2022/10/27 08:15:59;;;;;;;1.50;0.90;;;16.00;90.30;;;;;;5049526;28;20609;-70
2022/10/27 08:18:27;;;;;;;1.87;0.80;;;16.00;90.20;;;;;;5063230;28;20513;-69
2022/10/27 08:20:56;;;;;;;2.90;0.83;;;16.10;90.30;;;;;;5047781;28;20866;-70
2022/10/27 08:23:25;;;;;;;1.20;0.80;;;16.00;90.20;;;;;;5061115;28;20626;-70
2022/10/27 08:25:56;;;;;;;1.13;1.03;;;16.10;90.20;;;;;;5037665;28;20480;-70
2022/10/27 08:28:25;;;;;;;2.10;1.10;;;16.10;90.20;;;;;;5035151;28;20452;-70
2022/10/27 08:30:56;;;;;;;1.13;1.03;;;16.10;90.20;;;;;;5055605;28;20475;-70
2022/10/27 08:33:25;;;;;;;2.07;1.70;;;16.10;90.10;;;;;;5058046;28;20467;-70
2022/10/27 08:35:54;;;;;;;0.93;0.90;;;16.10;90.10;;;;;;5025614;28;20467;-70
2022/10/27 08:38:23;;;;;;;1.43;1.30;;;16.10;90.10;;;;;;5058730;28;20538;-70
2022/10/27 08:41:03;;;;;;;1.10;1.00;;;16.10;90.00;;;;;;5044808;28;20471;-68
2022/10/27 08:44:06;;;;;;;3.37;0.70;;;16.10;90.10;;;;;;5062736;28;20439;-68
2022/10/27 08:46:41;;;;;;;1.23;0.80;;;16.10;90.10;;;;;;5004542;28;21072;-68
2022/10/27 08:49:24;;;;;;;1.47;0.77;;;16.10;90.10;;;;;;5047760;28;20450;-70
2022/10/27 08:51:55;;;;;;;3.90;0.93;;;16.10;90.20;;;;;;5048376;28;20467;-70
2022/10/27 08:54:25;;;;;;;1.07;0.70;;;16.10;90.20;;;;;;5048243;28;20505;-70
2022/10/27 08:56:57;;;;;;;3.37;0.97;;;16.10;90.10;;;;;;5035699;28;20762;-70
2022/10/27 08:59:26;;;;;;;0.90;0.80;;;16.10;90.50;;;;;;5063638;28;20482;-70
2022/10/27 09:02:06;;;;;;;1.63;1.53;;;16.20;90.60;;;;;;5064406;28;20443;-70
2022/10/27 09:04:55;;;;;;;1.43;1.10;;;16.20;92.00;;;;;;5064306;28;20811;-70
2022/10/27 09:07:30;;;;;;;3.17;1.00;;;16.20;91.50;;;;;;5047645;28;20431;-70
2022/10/27 09:10:02;;;;;;;1.03;0.80;;;16.20;91.40;;;;;;5047742;28;21007;-70
2022/10/27 09:12:59;;;;;;;1.77;1.17;;;16.20;91.30;;;;;;5040661;28;20556;-70
2022/10/27 09:15:43;;;;;;;3.60;0.83;;;16.20;91.10;;;;;;5029543;28;20491;-70
2022/10/27 09:18:24;;;;;;;1.10;0.70;;;16.20;91.10;;;;;;5059142;28;20562;-70
2022/10/27 09:20:55;;;;;;;2.13;1.00;;;16.20;91.00;;;;;;5052894;28;20467;-70
2022/10/27 09:23:29;;;;;;;1.20;1.00;;;16.20;90.90;;;;;;5062135;28;20526;-70
2022/10/27 09:25:59;;;;;;;1.00;0.90;;;16.20;90.90;;;;;;5066956;28;20481;-70
2022/10/27 09:28:34;;;;;;;3.17;1.10;;;16.20;91.00;;;;;;5051135;28;20481;-69
2022/10/27 09:31:04;;;;;;;0.83;0.70;;;16.20;90.90;;;;;;5047311;28;20551;-71
2022/10/27 09:33:36;;;;;;;1.80;0.67;;;16.20;90.80;;;;;;5058482;28;20436;-70
2022/10/27 09:36:13;;;;;;;1.00;0.87;;;16.20;90.90;;;;;;5049979;28;20842;-70
2022/10/27 09:38:43;;;;;;;0.80;0.80;;;16.20;90.90;;;;;;5067243;28;20541;-70
2022/10/27 09:41:12;;;;;;;1.27;0.77;;;16.20;90.90;;;;;;5064666;28;20463;-70
2022/10/27 09:43:41;;;;;;;1.00;0.80;;;16.20;90.90;;;;;;5048597;28;20961;-70
2022/10/27 09:46:21;;;;;;;1.70;0.70;;;16.20;90.80;;;;;;5065709;28;20475;-69
2022/10/27 09:48:56;;;;;;;1.20;0.80;;;16.20;90.90;;;;;;5041875;28;20459;-70
2022/10/27 09:51:29;;;;;;;1.10;0.90;;;16.20;90.80;;;;;;5048482;28;20888;-69
2022/10/27 09:54:00;;;;;;;0.80;0.70;;;16.20;90.90;;;;;;5064752;28;20443;-70
2022/10/27 09:56:31;;;;;;;1.20;0.90;;;16.20;90.90;;;;;;5048187;28;20483;-70
2022/10/27 09:59:03;;;;;;;0.90;0.83;;;16.20;90.90;;;;;;5066351;28;20482;-70
2022/10/27 10:01:48;;;;;;;0.70;0.63;;;16.20;90.80;;;;;;5061853;28;20526;-69
2022/10/27 10:04:22;;;;;;;1.60;1.47;;;16.20;90.80;;;;;;5043750;28;20453;-70
2022/10/27 10:06:55;;;;;;;0.90;0.70;;;16.20;90.80;;;;;;5038945;28;20803;-69
2022/10/27 10:09:27;;;;;;;1.77;1.00;;;16.20;90.90;;;;;;5048108;28;20813;-69
2022/10/27 10:12:17;;;;;;;2.03;1.30;;;16.20;90.90;;;;;;5043532;28;20465;-69
2022/10/27 10:14:52;;;;;;;1.27;0.63;;;16.20;91.30;;;;;;5056722;28;20428;-69
2022/10/27 10:17:25;;;;;;;1.40;0.83;;;16.20;90.80;;;;;;5062452;28;20466;-69
2022/10/27 10:19:56;;;;;;;1.30;1.20;;;16.20;90.90;;;;;;5061502;28;20515;-69
2022/10/27 10:22:28;;;;;;;1.10;0.80;;;16.20;90.90;;;;;;5054313;28;20669;-70
2022/10/27 10:24:59;;;;;;;1.33;1.10;;;16.20;90.90;;;;;;5059198;28;20448;-69
2022/10/27 10:27:30;;;;;;;0.90;0.60;;;16.20;91.00;;;;;;5056231;28;20803;-69
2022/10/27 10:30:01;;;;;;;1.70;0.60;;;16.20;90.90;;;;;;5058199;28;20555;-69
2022/10/27 10:32:34;;;;;;;0.90;0.70;;;16.20;90.90;;;;;;5057676;28;20498;-69
2022/10/27 10:35:45;;;;;;;1.53;0.83;;;16.20;90.90;;;;;;5050829;28;20960;-70
2022/10/27 10:38:29;;;;;;;1.70;0.90;;;16.20;90.90;;;;;;5060531;28;20487;-69
2022/10/27 10:41:11;;;;;;;2.20;0.80;;;16.20;90.90;;;;;;5036434;28;20590;-69
2022/10/27 10:44:05;;;;;;;0.80;0.70;;;16.20;90.90;;;;;;5047423;28;20459;-69
2022/10/27 10:46:58;;;;;;;2.17;0.87;;;16.20;90.90;;;;;;5037190;28;20471;-70
2022/10/27 10:49:30;;;;;;;2.13;1.03;;;16.20;90.80;;;;;;5046657;28;20466;-69
2022/10/27 10:52:05;;;;;;;1.90;0.90;;;16.20;90.80;;;;;;5054020;28;20993;-69
2022/10/27 10:54:40;;;;;;;1.20;0.67;;;16.20;90.80;;;;;;5055834;28;20543;-70
2022/10/27 10:57:25;;;;;;;1.43;0.97;;;16.20;90.80;;;;;;5052544;28;20443;-70
2022/10/27 11:00:00;;;;;;;1.27;0.77;;;16.20;90.80;;;;;;5045770;28;20428;-72
2022/10/27 11:02:30;;;;;;;1.70;0.80;;;16.20;90.90;;;;;;5042114;28;20440;-73
2022/10/27 11:05:10;;;;;;;2.60;0.83;;;16.20;90.80;;;;;;5046567;28;20528;-72
2022/10/27 11:07:45;;;;;;;1.50;1.20;;;16.20;90.80;;;;;;5045179;28;20941;-72
2022/10/27 11:10:17;;;;;;;1.13;0.83;;;16.20;90.80;;;;;;5047527;28;20431;-70
2022/10/27 11:12:50;;;;;;;1.50;1.10;;;16.20;90.80;;;;;;5041656;28;20849;-69
2022/10/27 11:15:26;;;;;;;1.30;0.73;;;16.20;91.30;;;;;;5039043;28;20459;-69
2022/10/27 11:17:59;;;;;;;0.93;0.87;;;16.20;90.80;;;;;;5054209;28;20471;-72
2022/10/27 11:20:32;;;;;;;2.10;0.63;;;16.20;90.80;;;;;;5058823;28;20828;-70
2022/10/27 11:23:06;;;;;;;1.00;0.90;;;16.20;90.80;;;;;;5057381;28;20510;-69
2022/10/27 11:25:37;;;;;;;0.97;0.53;;;16.20;90.80;;;;;;5062439;28;20497;-72
2022/10/27 11:28:15;;;;;;;1.00;0.73;;;16.20;90.90;;;;;;5043733;28;20484;-69
2022/10/27 11:30:50;;;;;;;0.80;0.60;;;16.20;90.80;;;;;;5055877;28;20463;-69
2022/10/27 11:33:30;;;;;;;0.90;0.80;;;16.20;90.80;;;;;;5046026;28;20616;-69
2022/10/27 11:36:07;;;;;;;1.03;0.83;;;16.20;90.80;;;;;;5060124;28;20498;-69
2022/10/27 11:42:01;;;;;;;1.17;0.70;;;16.20;90.90;;;;;;5039958;28;20498;-70
2022/10/27 11:44:54;;;;;;;0.97;0.87;;;16.20;90.90;;;;;;5044110;28;21086;-69
2022/10/27 11:47:46;;;;;;;1.00;0.80;;;16.20;90.90;;;;;;5052333;28;20439;-70
2022/10/27 11:50:21;;;;;;;1.93;0.90;;;16.20;90.80;;;;;;5060752;28;20500;-70
2022/10/27 11:52:52;;;;;;;1.10;1.00;;;16.20;90.90;;;;;;5062507;28;20557;-69
2022/10/27 11:55:25;;;;;;;1.00;0.83;;;16.20;90.90;;;;;;5047952;28;21346;-72
2022/10/27 11:58:04;;;;;;;2.10;1.20;;;16.20;91.00;;;;;;5047384;28;20549;-72
2022/10/27 12:00:40;;;;;;;1.47;0.83;;;16.20;91.00;;;;;;5050857;28;20555;-70
2022/10/27 12:03:30;;;;;;;1.43;1.10;;;16.20;91.00;;;;;;5035194;28;20451;-69
2022/10/27 12:06:02;;;;;;;5.07;1.57;;;16.20;91.00;;;;;;5042008;28;20459;-70
2022/10/27 12:08:44;;;;;;;0.70;0.70;;;16.20;91.00;;;;;;5064042;28;20561;-69
2022/10/27 12:11:29;;;;;;;2.53;1.03;;;16.20;91.10;;;;;;5056311;28;20526;-72
2022/10/27 12:14:04;;;;;;;0.77;0.77;;;16.20;91.00;;;;;;5034508;28;20466;-72
2022/10/27 12:16:39;;;;;;;1.13;0.77;;;16.20;91.00;;;;;;5046482;28;20465;-72
2022/10/27 12:19:18;;;;;;;1.30;0.87;;;16.20;91.10;;;;;;5047423;28;20868;-72
2022/10/27 12:21:52;;;;;;;0.87;0.80;;;16.20;91.10;;;;;;5041287;28;20961;-72
2022/10/27 12:24:28;;;;;;;4.10;0.87;;;16.20;91.10;;;;;;5061616;28;20428;-72
2022/10/27 12:27:02;;;;;;;1.20;0.90;;;16.20;91.00;;;;;;5041239;28;20514;-72
2022/10/27 12:29:35;;;;;;;2.00;0.87;;;16.20;91.00;;;;;;5047622;28;20554;-72
2022/10/27 12:32:10;;;;;;;1.53;0.83;;;16.20;91.10;;;;;;5045027;28;20965;-72
2022/10/27 12:34:44;;;;;;;1.77;1.10;;;16.30;91.10;;;;;;5047928;28;20704;-72
2022/10/27 12:37:20;;;;;;;1.73;1.00;;;16.30;91.00;;;;;;5034951;28;20444;-72
2022/10/27 12:39:57;;;;;;;2.40;1.03;;;16.30;91.10;;;;;;5047801;28;20458;-72
2022/10/27 12:42:38;;;;;;;1.80;1.10;;;16.30;91.10;;;;;;5044571;28;20439;-72
2022/10/27 12:45:27;;;;;;;3.13;1.27;;;16.30;91.10;;;;;;5042293;28;20436;-72
2022/10/27 12:48:09;;;;;;;1.43;1.33;;;16.30;91.20;;;;;;5044041;28;20735;-72
2022/10/27 12:54:42;;;;;;;2.17;1.20;;;16.30;91.20;;;;;;5039497;28;20452;-72
2022/10/27 12:57:45;;;;;;;1.73;1.17;;;16.30;91.10;;;;;;5046778;28;20462;-72
2022/10/27 13:00:36;;;;;;;4.13;1.50;;;16.30;91.10;;;;;;5060590;28;20466;-72
2022/10/27 13:03:55;;;;;;;3.30;1.20;;;16.30;91.20;;;;;;5063891;28;20454;-73
2022/10/27 13:06:47;;;;;;;1.10;1.00;;;16.30;91.20;;;;;;4982396;28;20445;-72
2022/10/27 13:09:52;;;;;;;1.33;1.07;;;16.30;91.20;;;;;;4988932;28;20501;-72
2022/10/27 13:12:38;;;;;;;1.37;1.27;;;16.30;91.70;;;;;;5040057;28;20923;-69
2022/10/27 13:15:45;;;;;;;1.67;1.30;;;16.30;91.70;;;;;;5050606;28;20992;-69
2022/10/27 13:18:27;;;;;;;3.40;1.30;;;16.30;91.30;;;;;;5065897;28;20463;-69
2022/10/27 13:21:03;;;;;;;1.93;1.00;;;16.30;91.30;;;;;;5044488;28;20474;-69
2022/10/27 13:23:44;;;;;;;1.47;0.93;;;16.30;91.20;;;;;;5049974;28;20428;-69
2022/10/27 13:26:22;;;;;;;2.07;1.53;;;16.30;91.20;;;;;;5045900;28;20506;-72